Time,TemperatureF,DewpointF,PressureIn,WindDirection,WindDirectionDegrees,WindSpeedMPH,WindSpeedGustMPH,Humidity,HourlyPrecipIn,Conditions,Clouds,dailyrainin,SolarRadiationWatts/m^2,SoftwareType,DateUTC
2013-01-15 00:01:00,-2.0,-7.0,-100.00,WSW,248,2.0,3.0,79,0.00,,,0.00,0.000000,,2013-01-15 06:01:00,
2013-01-15 00:22:00,-2.0,-7.0,-100.00,WSW,248,2.0,3.0,79,0.00,,,0.00,0.000000,,2013-01-15 06:22:00,
2013-01-15 00:33:00,-2.0,-7.0,-100.00,WSW,248,2.0,3.0,79,0.00,,,0.00,0.000000,,2013-01-15 06:33:00,
2013-01-15 00:43:00,-2.0,-7.0,-100.00,WSW,248,2.0,3.0,79,0.00,,,0.00,0.000000,,2013-01-15 06:43:00,
2013-01-15 00:53:00,-2.0,-7.0,-100.00,WSW,248,2.0,3.0,79,0.00,,,0.00,0.000000,,2013-01-15 06:53:00,
2013-01-15 01:01:00,2.0,-4.0,-100.00,West,266,0.0,4.0,77,0.00,,,0.00,0.000000,,2013-01-15 07:01:00,
2013-01-15 01:33:00,2.0,-4.0,-100.00,West,266,0.0,4.0,77,0.00,,,0.00,0.000000,,2013-01-15 07:33:00,
2013-01-15 01:43:00,2.0,-4.0,-100.00,West,266,0.0,4.0,77,0.00,,,0.00,0.000000,,2013-01-15 07:43:00,
2013-01-15 01:53:00,2.0,-4.0,-100.00,West,266,0.0,4.0,77,0.00,,,0.00,0.000000,,2013-01-15 07:53:00,
2013-01-15 02:01:00,4.0,-2.0,-100.00,SW,219,2.0,7.0,75,0.00,,,0.00,0.000000,,2013-01-15 08:01:00,
2013-01-15 02:33:00,4.0,-2.0,-100.00,SW,219,2.0,7.0,75,0.00,,,0.00,0.000000,,2013-01-15 08:33:00,
2013-01-15 02:43:00,4.0,-2.0,-100.00,SW,219,2.0,7.0,75,0.00,,,0.00,0.000000,,2013-01-15 08:43:00,
2013-01-15 02:53:00,4.0,-2.0,-100.00,SW,219,2.0,7.0,75,0.00,,,0.00,0.000000,,2013-01-15 08:53:00,
2013-01-15 03:01:00,5.0,-2.0,-100.00,SSW,193,3.0,7.0,72,0.00,,,0.00,0.000000,,2013-01-15 09:01:00,
2013-01-15 03:33:00,5.0,-2.0,-100.00,SSW,193,3.0,7.0,72,0.00,,,0.00,0.000000,,2013-01-15 09:33:00,
2013-01-15 03:42:00,5.0,-2.0,-100.00,SSW,193,3.0,7.0,72,0.00,,,0.00,0.000000,,2013-01-15 09:42:00,
2013-01-15 03:52:00,5.0,-2.0,-100.00,SSW,193,3.0,7.0,72,0.00,,,0.00,0.000000,,2013-01-15 09:52:00,
2013-01-15 04:01:00,7.0,-1.0,-100.00,SSW,213,7.0,14.0,68,0.00,,,0.00,0.000000,,2013-01-15 10:01:00,
2013-01-15 04:33:00,7.0,-1.0,-100.00,SSW,213,7.0,14.0,68,0.00,,,0.00,0.000000,,2013-01-15 10:33:00,
2013-01-15 04:42:00,7.0,-1.0,-100.00,SSW,213,7.0,14.0,68,0.00,,,0.00,0.000000,,2013-01-15 10:42:00,
2013-01-15 04:52:00,7.0,-1.0,-100.00,SSW,213,7.0,14.0,68,0.00,,,0.00,0.000000,,2013-01-15 10:52:00,
2013-01-15 05:01:00,8.0,-1.0,-100.00,SSW,210,6.0,12.0,66,0.00,,,0.00,0.000000,,2013-01-15 11:01:00,
2013-01-15 05:33:00,8.0,-1.0,-100.00,SSW,210,6.0,12.0,66,0.00,,,0.00,0.000000,,2013-01-15 11:33:00,
2013-01-15 05:43:00,8.0,-1.0,-100.00,SSW,210,6.0,12.0,66,0.00,,,0.00,0.000000,,2013-01-15 11:43:00,
2013-01-15 05:53:00,8.0,-1.0,-100.00,SSW,210,6.0,12.0,66,0.00,,,0.00,0.000000,,2013-01-15 11:53:00,
2013-01-15 06:01:00,8.0,2.0,-100.00,WSW,238,6.0,12.0,75,0.00,,,0.00,0.000000,,2013-01-15 12:01:00,
2013-01-15 06:23:00,8.0,2.0,-100.00,WSW,238,6.0,12.0,75,0.00,,,0.00,0.000000,,2013-01-15 12:23:00,
2013-01-15 06:33:00,8.0,2.0,-100.00,WSW,238,6.0,12.0,75,0.00,,,0.00,0.000000,,2013-01-15 12:33:00,
2013-01-15 06:43:00,8.0,2.0,-100.00,WSW,238,6.0,12.0,75,0.00,,,0.00,0.000000,,2013-01-15 12:43:00,
2013-01-15 06:53:00,8.0,2.0,-100.00,WSW,238,6.0,12.0,75,0.00,,,0.00,0.000000,,2013-01-15 12:53:00,
2013-01-15 07:01:00,9.0,4.0,-100.00,WSW,240,7.0,17.0,78,0.00,,,0.00,0.000000,,2013-01-15 13:01:00,
2013-01-15 07:33:00,9.0,4.0,-100.00,WSW,240,7.0,17.0,78,0.00,,,0.00,0.000000,,2013-01-15 13:33:00,
2013-01-15 07:43:00,9.0,4.0,-100.00,WSW,240,7.0,17.0,78,0.00,,,0.00,0.000000,,2013-01-15 13:43:00,
2013-01-15 07:53:00,9.0,4.0,-100.00,WSW,240,7.0,17.0,78,0.00,,,0.00,0.000000,,2013-01-15 13:53:00,
2013-01-15 08:01:00,10.0,5.0,-100.00,SW,233,6.0,13.0,80,0.00,,,0.00,5.000000,,2013-01-15 14:01:00,
2013-01-15 08:33:00,10.0,5.0,-100.00,SW,233,6.0,13.0,80,0.00,,,0.00,5.000000,,2013-01-15 14:33:00,
2013-01-15 08:43:00,10.0,5.0,-100.00,SW,233,6.0,13.0,80,0.00,,,0.00,5.000000,,2013-01-15 14:43:00,
2013-01-15 08:53:00,10.0,5.0,-100.00,SW,233,6.0,13.0,80,0.00,,,0.00,5.000000,,2013-01-15 14:53:00,
2013-01-15 09:01:00,11.0,5.0,-100.00,WSW,254,6.0,13.0,76,0.00,,,0.00,59.000000,,2013-01-15 15:01:00,
2013-01-15 09:33:00,11.0,5.0,-100.00,WSW,254,6.0,13.0,76,0.00,,,0.00,59.000000,,2013-01-15 15:33:00,
2013-01-15 09:43:00,11.0,5.0,-100.00,WSW,254,6.0,13.0,76,0.00,,,0.00,59.000000,,2013-01-15 15:43:00,
2013-01-15 09:53:00,11.0,5.0,-100.00,WSW,254,6.0,13.0,76,0.00,,,0.00,59.000000,,2013-01-15 15:53:00,
2013-01-15 10:01:00,15.0,6.0,-100.00,WSW,248,10.0,19.0,67,0.00,,,0.00,191.000000,,2013-01-15 16:01:00,
2013-01-15 10:33:00,15.0,6.0,-100.00,WSW,248,10.0,19.0,67,0.00,,,0.00,191.000000,,2013-01-15 16:33:00,
2013-01-15 10:43:00,15.0,6.0,-100.00,WSW,248,10.0,19.0,67,0.00,,,0.00,191.000000,,2013-01-15 16:43:00,
2013-01-15 10:53:00,15.0,6.0,-100.00,WSW,248,10.0,19.0,67,0.00,,,0.00,191.000000,,2013-01-15 16:53:00,
2013-01-15 11:01:00,17.0,4.0,-100.00,WSW,256,9.0,19.0,57,0.00,,,0.00,350.000000,,2013-01-15 17:01:00,
2013-01-15 11:33:00,17.0,4.0,-100.00,WSW,256,9.0,19.0,57,0.00,,,0.00,350.000000,,2013-01-15 17:33:00,
2013-01-15 11:43:00,17.0,4.0,-100.00,WSW,256,9.0,19.0,57,0.00,,,0.00,350.000000,,2013-01-15 17:43:00,
2013-01-15 11:53:00,17.0,4.0,-100.00,WSW,256,9.0,19.0,57,0.00,,,0.00,350.000000,,2013-01-15 17:53:00,
2013-01-15 12:01:00,20.0,2.0,-100.00,WSW,256,9.0,18.0,45,0.00,,,0.00,363.000000,,2013-01-15 18:01:00,
2013-01-15 12:33:00,20.0,2.0,-100.00,WSW,256,9.0,18.0,45,0.00,,,0.00,363.000000,,2013-01-15 18:33:00,
2013-01-15 12:43:00,20.0,2.0,-100.00,WSW,256,9.0,18.0,45,0.00,,,0.00,363.000000,,2013-01-15 18:43:00,
2013-01-15 12:53:00,20.0,2.0,-100.00,WSW,256,9.0,18.0,45,0.00,,,0.00,363.000000,,2013-01-15 18:53:00,
2013-01-15 13:01:00,23.0,1.0,-100.00,West,262,9.0,19.0,38,0.00,,,0.00,369.000000,,2013-01-15 19:01:00,
2013-01-15 13:33:00,23.0,1.0,-100.00,West,262,9.0,19.0,38,0.00,,,0.00,369.000000,,2013-01-15 19:33:00,
2013-01-15 13:43:00,23.0,1.0,-100.00,West,262,9.0,19.0,38,0.00,,,0.00,369.000000,,2013-01-15 19:43:00,
2013-01-15 13:53:00,23.0,1.0,-100.00,West,262,9.0,19.0,38,0.00,,,0.00,369.000000,,2013-01-15 19:53:00,
2013-01-15 14:01:00,25.0,3.0,-100.00,WSW,249,8.0,19.0,38,0.00,,,0.00,278.000000,,2013-01-15 20:01:00,
2013-01-15 14:33:00,25.0,3.0,-100.00,WSW,249,8.0,19.0,38,0.00,,,0.00,278.000000,,2013-01-15 20:33:00,
2013-01-15 14:44:00,25.0,3.0,-100.00,WSW,249,8.0,19.0,38,0.00,,,0.00,278.000000,,2013-01-15 20:44:00,
2013-01-15 14:53:00,25.0,3.0,-100.00,WSW,249,8.0,19.0,38,0.00,,,0.00,278.000000,,2013-01-15 20:53:00,
2013-01-15 15:01:00,26.0,3.0,-100.00,SW,233,9.0,18.0,37,0.00,,,0.00,276.000000,,2013-01-15 21:01:00,
2013-01-15 15:34:00,26.0,3.0,-100.00,SW,233,9.0,18.0,37,0.00,,,0.00,276.000000,,2013-01-15 21:34:00,
2013-01-15 15:43:00,26.0,3.0,-100.00,SW,233,9.0,18.0,37,0.00,,,0.00,276.000000,,2013-01-15 21:43:00,
2013-01-15 15:53:00,26.0,3.0,-100.00,SW,233,9.0,18.0,37,0.00,,,0.00,276.000000,,2013-01-15 21:53:00,
2013-01-15 16:01:00,25.0,5.0,-100.00,SW,227,9.0,19.0,42,0.00,,,0.00,144.000000,,2013-01-15 22:01:00,
2013-01-15 16:33:00,25.0,5.0,-100.00,SW,227,9.0,19.0,42,0.00,,,0.00,144.000000,,2013-01-15 22:33:00,
2013-01-15 16:43:00,25.0,5.0,-100.00,SW,227,9.0,19.0,42,0.00,,,0.00,144.000000,,2013-01-15 22:43:00,
2013-01-15 16:53:00,25.0,5.0,-100.00,SW,227,9.0,19.0,42,0.00,,,0.00,144.000000,,2013-01-15 22:53:00,
2013-01-15 17:01:00,22.0,6.0,-100.00,SW,226,7.0,15.0,49,0.00,,,0.00,13.000000,,2013-01-15 23:01:00,
2013-01-15 17:33:00,22.0,6.0,-100.00,SW,226,7.0,15.0,49,0.00,,,0.00,13.000000,,2013-01-15 23:33:00,
2013-01-15 17:43:00,22.0,6.0,-100.00,SW,226,7.0,15.0,49,0.00,,,0.00,13.000000,,2013-01-15 23:43:00,
2013-01-15 17:53:00,22.0,6.0,-100.00,SW,226,7.0,15.0,49,0.00,,,0.00,13.000000,,2013-01-15 23:53:00,
2013-01-15 18:01:00,21.0,5.0,-100.00,SW,226,7.0,13.0,50,0.00,,,0.00,0.000000,,2013-01-16 00:01:00,
2013-01-15 18:23:00,21.0,5.0,-100.00,SW,226,7.0,13.0,50,0.00,,,0.00,0.000000,,2013-01-16 00:23:00,
2013-01-15 18:33:00,21.0,5.0,-100.00,SW,226,7.0,13.0,50,0.00,,,0.00,0.000000,,2013-01-16 00:33:00,
2013-01-15 18:43:00,21.0,5.0,-100.00,SW,226,7.0,13.0,50,0.00,,,0.00,0.000000,,2013-01-16 00:43:00,
2013-01-15 18:53:00,21.0,5.0,-100.00,SW,226,7.0,13.0,50,0.00,,,0.00,0.000000,,2013-01-16 00:53:00,
2013-01-15 19:01:00,20.0,6.0,-100.00,SW,226,9.0,15.0,54,0.00,,,0.00,0.000000,,2013-01-16 01:01:00,
2013-01-15 19:33:00,20.0,6.0,-100.00,SW,226,9.0,15.0,54,0.00,,,0.00,0.000000,,2013-01-16 01:33:00,
2013-01-15 19:43:00,20.0,6.0,-100.00,SW,226,9.0,15.0,54,0.00,,,0.00,0.000000,,2013-01-16 01:43:00,
2013-01-15 19:53:00,20.0,6.0,-100.00,SW,226,9.0,15.0,54,0.00,,,0.00,0.000000,,2013-01-16 01:53:00,
2013-01-15 20:01:00,20.0,8.0,-100.00,SW,222,10.0,16.0,60,0.00,,,0.00,0.000000,,2013-01-16 02:01:00,
2013-01-15 20:33:00,20.0,8.0,-100.00,SW,222,10.0,16.0,60,0.00,,,0.00,0.000000,,2013-01-16 02:33:00,
2013-01-15 20:43:00,20.0,8.0,-100.00,SW,222,10.0,16.0,60,0.00,,,0.00,0.000000,,2013-01-16 02:43:00,
2013-01-15 20:53:00,20.0,8.0,-100.00,SW,222,10.0,16.0,60,0.00,,,0.00,0.000000,,2013-01-16 02:53:00,
2013-01-15 21:01:00,20.0,11.0,-100.00,SW,231,9.0,17.0,67,0.00,,,0.00,0.000000,,2013-01-16 03:01:00,
2013-01-15 21:22:00,20.0,11.0,-100.00,SW,231,9.0,17.0,67,0.00,,,0.00,0.000000,,2013-01-16 03:22:00,
2013-01-15 21:33:00,20.0,11.0,-100.00,SW,231,9.0,17.0,67,0.00,,,0.00,0.000000,,2013-01-16 03:33:00,
2013-01-15 21:43:00,20.0,11.0,-100.00,SW,231,9.0,17.0,67,0.00,,,0.00,0.000000,,2013-01-16 03:43:00,
2013-01-15 21:53:00,20.0,11.0,-100.00,SW,231,9.0,17.0,67,0.00,,,0.00,0.000000,,2013-01-16 03:53:00,
2013-01-15 22:01:00,21.0,12.0,-100.00,SW,233,11.0,19.0,69,0.00,,,0.00,0.000000,,2013-01-16 04:01:00,
2013-01-15 22:33:00,21.0,12.0,-100.00,SW,233,11.0,19.0,69,0.00,,,0.00,0.000000,,2013-01-16 04:33:00,
2013-01-15 22:42:00,21.0,12.0,-100.00,SW,233,11.0,19.0,69,0.00,,,0.00,0.000000,,2013-01-16 04:42:00,
2013-01-15 22:52:00,21.0,12.0,-100.00,SW,233,11.0,19.0,69,0.00,,,0.00,0.000000,,2013-01-16 04:52:00,
2013-01-15 23:01:00,22.0,13.0,-100.00,SW,231,9.0,20.0,68,0.00,,,0.00,0.000000,,2013-01-16 05:01:00,
2013-01-15 23:33:00,22.0,13.0,-100.00,SW,231,9.0,20.0,68,0.00,,,0.00,0.000000,,2013-01-16 05:33:00,
2013-01-15 23:42:00,22.0,13.0,-100.00,SW,231,9.0,20.0,68,0.00,,,0.00,0.000000,,2013-01-16 05:42:00,
2013-01-15 23:53:00,22.0,13.0,-100.00,SW,231,9.0,20.0,68,0.00,,,0.00,0.000000,,2013-01-16 05:53:00,